WetterOnline ( https://www.wetteronline.de )

Wetter aktuell Fichtelberg

Aktuelles Wetter: Fichtelberg (1215m)

6-stündlich | Neueste Meldungen
Ortszeit Temperatur Wetter
Sa, 15.06. 2:00 8.7° C bewölkt
Fr, 14.06. 20:00 8.7° C bedeckt
Fr, 14.06. 14:00 7.9° C leichter Regen
Fr, 14.06. 8:00 7.9° C bedeckt
Fr, 14.06. 2:00 5.5° C leicht bewölkt
Do, 13.06. 20:00 9.6° C leicht bewölkt
Do, 13.06. 14:00 7.8° C leichter Regen
Do, 13.06. 8:00 6.8° C bewölkt
Ortszeit Temperatur Wetter
Sa, 15.06. 2:30 8.8° C bewölkt
Sa, 15.06. 2:20 8.8° C bewölkt
Sa, 15.06. 2:10 8.7° C bedeckt
Sa, 15.06. 2:00 8.7° C bewölkt
Sa, 15.06. 1:50 8.7° C bewölkt
Sa, 15.06. 1:40 8.8° C bewölkt
Sa, 15.06. 1:30 8.8° C wolkig
Sa, 15.06. 1:00 8.8° C Nebel
Sa, 15.06. 0:30 8.9° C Nebel
Sa, 15.06. 0:00 8.9° C Nebel
Fr, 14.06. 23:30 8.7° C Nebel
Ortszeit Relative Feuchte Sichtweite
Sa, 15.06. 2:00 93% 35 km
Fr, 14.06. 20:00 97% 10 km
Fr, 14.06. 14:00 96% 13 km
Fr, 14.06. 8:00 75% 65 km
Fr, 14.06. 2:00 82% 55 km
Do, 13.06. 20:00 65% 65 km
Do, 13.06. 14:00 92% 10 km
Do, 13.06. 8:00 82% 40 km
Ortszeit Relative Feuchte Sichtweite
Sa, 15.06. 2:30 92% 45 km
Sa, 15.06. 2:20 92% -
Sa, 15.06. 2:10 92% -
Sa, 15.06. 2:00 93% 35 km
Sa, 15.06. 1:50 93% -
Sa, 15.06. 1:40 93% -
Sa, 15.06. 1:30 95% 25 km
Sa, 15.06. 1:00 96% 21 km
Sa, 15.06. 0:30 99% 13 km
Sa, 15.06. 0:00 100% 2.4 km
Fr, 14.06. 23:30 99% 100 m
Ortszeit Niederschlagsmenge Niederschlagsart
Sa, 15.06. 2:00 0.1 l/m2 in 6 Std. Regen
Fr, 14.06. 20:00 2 l/m2 in 12 Std. Regen
Fr, 14.06. 14:00 2 l/m2 in 6 Std. Regen
Fr, 14.06. 8:00 0.0 l/m2 in 12 Std. -
Fr, 14.06. 2:00 0.0 l/m2 in 6 Std. -
Do, 13.06. 20:00 6 l/m2 in 12 Std. Regen
Do, 13.06. 14:00 6 l/m2 in 6 Std. Schneeschauer
Do, 13.06. 8:00 0.1 l/m2 in 12 Std. -
Ortszeit Niederschlagsmenge Niederschlagsart
Sa, 15.06. 2:30 0.0 l/m2 in 30 Min -
Sa, 15.06. 2:20 keine Meldung -
Sa, 15.06. 2:10 keine Meldung -
Sa, 15.06. 2:00 0.0 l/m2 in 1 Std. Regen
Sa, 15.06. 1:50 keine Meldung -
Sa, 15.06. 1:40 keine Meldung -
Sa, 15.06. 1:30 0.0 l/m2 in 30 Min -
Sa, 15.06. 1:00 0.0 l/m2 in 1 Std. -
Sa, 15.06. 0:30 0.0 l/m2 in 30 Min -
Sa, 15.06. 0:00 0.0 l/m2 in 1 Std. -
Fr, 14.06. 23:30 0.0 l/m2 in 30 Min -
Ortszeit Stärke Spitze Richtung
km/h Bft. km/h Grad Sektor
Sa, 15.06. 2:00 35 5 46 180° S
Fr, 14.06. 20:00 26 4 52 210° SW
Fr, 14.06. 14:00 36 5 54 190° S
Fr, 14.06. 8:00 31 5 41 190° S
Fr, 14.06. 2:00 26 4 33 150° SO
Do, 13.06. 20:00 11 2 54 260° W
Do, 13.06. 14:00 20 4 31 290° W
Do, 13.06. 8:00 7 2 18 280° W
Ortszeit Stärke Spitze Richtung
km/h Bft. km/h Grad Sektor
Sa, 15.06. 2:30 35 5 44 180° S
Sa, 15.06. 2:20 35 5 - 180° S
Sa, 15.06. 2:10 36 5 - 180° S
Sa, 15.06. 2:00 35 5 44 180° S
Sa, 15.06. 1:50 35 5 - 180° S
Sa, 15.06. 1:40 35 5 - 180° S
Sa, 15.06. 1:30 36 5 47 190° S
Sa, 15.06. 1:00 39 6 46 190° S
Sa, 15.06. 0:30 36 5 43 190° S
Sa, 15.06. 0:00 33 5 46 200° S
Fr, 14.06. 23:30 35 5 46 220° SW
Ortszeit Untergrenze Bedeckung Gattung
total tief tief mittel hoch
Sa, 15.06. 2:00 360 m 7/8 7/8 - - -
Fr, 14.06. 20:00 120 m 8/8 8/8 - - -
Fr, 14.06. 14:00 <30 m 7/8 0/8 - - -
Fr, 14.06. 8:00 3300 m 8/8 8/8 - - -
Fr, 14.06. 2:00 9000 m 3/8 0/8 - - -
Do, 13.06. 20:00 7800 m 6/8 0/8 - - -
Do, 13.06. 14:00 270 m 8/8 8/8 - - -
Do, 13.06. 8:00 690 m 7/8 7/8 - - -
Ortszeit Bedeckungsgrad in Achtel und Wolkenuntergrenze
Sa, 15.06. 2:30 5(420m) 8(8100m) 8(9000m)
Sa, 15.06. 2:20 5(420m) 8(8100m) 8(9000m)
Sa, 15.06. 2:10 8
Sa, 15.06. 2:00 5(360m) 7(1500m) 7(7800m)
Sa, 15.06. 1:50 5(360m) 7(1500m) 7(7800m)
Sa, 15.06. 1:40 7
Sa, 15.06. 1:30 2(1410m) 7(8400m) 8(9000m)
Sa, 15.06. 1:00 3(1500m) 7(9000m) 7(9000m)
Sa, 15.06. 0:30 2(<30m) 7(1410m) 7(9000m)
Sa, 15.06. 0:00 6(<30m) 7(1380m) 8(8100m)
Fr, 14.06. 23:30 7(<30m) 8(630m) 8(8100m)
Ortszeit Stationsdruck (hPa) Tendenz (hPa in 3 Std.)
Sa, 15.06. 2:00 875 - 1,2
Fr, 14.06. 20:00 877 - 0,3
Fr, 14.06. 14:00 877 - 0,3
Fr, 14.06. 8:00 878 - 0,6
Fr, 14.06. 2:00 879 - 0,7
Do, 13.06. 20:00 880 + 0,3
Do, 13.06. 14:00 880 - 0,4
Do, 13.06. 8:00 880 + 0,4
Ortszeit Stationsdruck (hPa) Tendenz (hPa in 3 Std.)
Sa, 15.06. 2:30 874 - 1,7
Sa, 15.06. 2:20 874 keine Meldung
Sa, 15.06. 2:10 875 keine Meldung
Sa, 15.06. 2:00 875 - 1,2
Sa, 15.06. 1:50 875 keine Meldung
Sa, 15.06. 1:40 875 keine Meldung
Sa, 15.06. 1:30 875 - 0,9
Sa, 15.06. 1:00 875 - 1,1
Sa, 15.06. 0:30 875 - 0,9
Sa, 15.06. 0:00 876 - 0,6
Fr, 14.06. 23:30 876 - 0,3
Ortszeit Schneehöhe (cm)
Sa, 15.06. 2:00 0
Fr, 14.06. 20:00 0
Fr, 14.06. 14:00 0
Fr, 14.06. 8:00 0
Fr, 14.06. 2:00 0
Do, 13.06. 20:00 0
Do, 13.06. 14:00 0
Do, 13.06. 8:00 0
Ortszeit Schneehöhe (cm)
Sa, 15.06. 2:30 0
Sa, 15.06. 2:20 0
Sa, 15.06. 2:10 -
Sa, 15.06. 2:00 0
Sa, 15.06. 1:50 0
Sa, 15.06. 1:40 -
Sa, 15.06. 1:30 0
Sa, 15.06. 1:00 0
Sa, 15.06. 0:30 0
Sa, 15.06. 0:00 0
Fr, 14.06. 23:30 0
Link zu dieser Seite / Seite empfehlen

Das Wetter in ...